KBLH/BLH METAR and TAF weather

Enter ICAO airport designator
Station Type Date Time Source
KBLH METAR 2021/05/14 02:52 UTC NOAA

KBLH 140252Z AUTO 17009KT 10SM CLR 32/02 A2979 RMK AO2 SLP081 T03170017 55001


Station Type Date Time Source
KBLH Decoded METAR 2021/05/14 02:52 UTC NOAA

BLYTHE AIRPORT, CA, United States (KBLH) 33-37N 114-43W 119M
May 13, 2021 - 10:52 PM EDT / 2021.05.14 0252 UTC
Wind: from the S (170 degrees) at 10 MPH (9 KT):0
Visibility: 10 mile(s):0
Sky conditions: clear
Temperature: 89.1 F (31.7 C)
Dew Point: 35.1 F (1.7 C)
Relative Humidity: 14%
Pressure (altimeter): 29.79 in. Hg (1008 hPa)
Pressure tendency: 0.00 inches (0.1 hPa) lower than three hours ago
ob: KBLH 140252Z AUTO 17009KT 10SM CLR 32/02 A2979 RMK AO2 SLP081 T03170017 55001
cycle: 3

Station Type Date Time Source
KBLH TAF 2021/05/13 18:24 UTC NOAA

TAF KBLH 131722Z 1318/1418 16007KT P6SM SKC
FM132100 18011G19KT P6SM SKC
FM140300 22007KT P6SM SKC
FM141000 VRB04KT P6SM SKC
FM141600 16008KT P6SM SKC

Example: see airport list